Time;durP1;ratioP1;P1;durP2;ratioP2;P2;SDS_P1;SDS_P2;PMS_P1;PMS_P2;Temp;Humidity;BMP_temperature;BMP_pressure;BME280_temperature;BME280_humidity;BME280_pressure;Samples;Min_cycle;Max_cycle;Signal;HPM_P1;HPM_P2
2022/04/21 00:00:50;;;;;;;3.13;2.63;;;;;;;;;;6296547;22;20011;-49
2022/04/21 00:03:16;;;;;;;6.95;2.72;;;;;;;;;;6296003;22;20034;-49
2022/04/21 00:05:41;;;;;;;6.95;3.00;;;;;;;;;;6298308;22;20098;-52
2022/04/21 00:08:07;;;;;;;5.18;2.58;;;;;;;;;;6296993;22;20019;-52
2022/04/21 00:10:32;;;;;;;5.22;2.13;;;;;;;;;;6297709;22;20018;-47
2022/04/21 00:12:57;;;;;;;3.42;2.33;;;;;;;;;;6296361;22;20332;-48
2022/04/21 00:15:23;;;;;;;9.55;2.60;;;;;;;;;;6295986;22;20071;-49
2022/04/21 00:17:49;;;;;;;6.05;2.10;;;;;;;;;;6298299;22;20241;-49
2022/04/21 00:20:14;;;;;;;3.83;2.50;;;;;;;;;;6296098;22;20038;-47
2022/04/21 00:25:26;;;;;;;6.82;2.30;;;;;;;;;;6297083;22;20050;-49
2022/04/21 00:27:52;;;;;;;8.15;2.53;;;;;;;;;;6294741;22;20022;-49
2022/04/21 00:30:17;;;;;;;6.32;2.58;;;;;;;;;;6297582;22;20015;-47
2022/04/21 00:32:42;;;;;;;3.53;2.13;;;;;;;;;;6296535;22;20550;-48
2022/04/21 00:35:11;;;;;;;2.92;2.15;;;;;;;;;;6298613;22;20069;-46
2022/04/21 00:37:47;;;;;;;5.63;2.72;;;;;;;;;;6294251;22;20011;-49
2022/04/21 00:40:12;;;;;;;3.67;2.53;;;;;;;;;;6297097;22;20015;-48
2022/04/21 00:42:38;;;;;;;7.28;2.45;;;;;;;;;;6297522;22;20188;-51
2022/04/21 00:45:03;;;;;;;4.85;2.45;;;;;;;;;;6297488;22;20034;-49
2022/04/21 00:47:30;;;;;;;3.42;2.08;;;;;;;;;;6296477;22;20046;-48
2022/04/21 00:49:55;;;;;;;3.85;2.95;;;;;;;;;;6297209;22;20220;-52
2022/04/21 00:52:21;;;;;;;4.80;3.45;;;;;;;;;;6295904;22;20022;-48
2022/04/21 00:54:47;;;;;;;3.80;2.47;;;;;;;;;;6297929;22;20011;-50
2022/04/21 00:57:12;;;;;;;3.80;2.63;;;;;;;;;;6296319;22;20023;-49
2022/04/21 00:59:37;;;;;;;6.10;2.83;;;;;;;;;;6296002;22;20075;-48
2022/04/21 01:04:48;;;;;;;17.60;2.88;;;;;;;;;;6295258;22;20075;-49
2022/04/21 01:07:13;;;;;;;7.03;2.40;;;;;;;;;;6297409;22;20007;-52
2022/04/21 01:09:38;;;;;;;5.93;3.35;;;;;;;;;;6296388;22;20041;-49
2022/04/21 01:12:08;;;;;;;2.97;2.58;;;;;;;;;;6293951;22;20854;-49
2022/04/21 01:14:34;;;;;;;4.07;2.60;;;;;;;;;;6288161;22;20008;-49
2022/04/21 01:17:00;;;;;;;4.82;2.70;;;;;;;;;;6297535;22;20020;-52
2022/04/21 01:19:26;;;;;;;7.60;3.05;;;;;;;;;;6296661;22;20015;-50
2022/04/21 01:21:51;;;;;;;4.43;2.90;;;;;;;;;;6297023;22;20045;-49
2022/04/21 01:24:16;;;;;;;5.47;3.95;;;;;;;;;;6296846;22;20074;-49
2022/04/21 01:26:42;;;;;;;8.10;3.25;;;;;;;;;;6294928;22;20013;-52
2022/04/21 01:29:07;;;;;;;6.68;3.28;;;;;;;;;;6296389;22;20042;-51
2022/04/21 01:31:32;;;;;;;6.43;2.88;;;;;;;;;;6296321;22;20018;-51
2022/04/21 01:33:58;;;;;;;4.53;3.08;;;;;;;;;;6297516;22;20015;-50
2022/04/21 01:36:23;;;;;;;5.03;3.15;;;;;;;;;;6295546;22;20015;-51
2022/04/21 01:41:32;;;;;;;4.38;3.20;;;;;;;;;;6296304;22;20042;-49
2022/04/21 01:43:57;;;;;;;4.20;2.60;;;;;;;;;;6297581;22;20027;-51
2022/04/21 01:46:23;;;;;;;5.38;3.25;;;;;;;;;;6295639;22;20063;-50
2022/04/21 01:48:48;;;;;;;6.22;2.70;;;;;;;;;;6296598;22;20571;-52
2022/04/21 01:51:13;;;;;;;3.63;2.40;;;;;;;;;;6297086;22;20077;-51
2022/04/21 01:53:38;;;;;;;3.97;2.97;;;;;;;;;;6295551;22;20038;-47
2022/04/21 01:56:04;;;;;;;5.10;3.00;;;;;;;;;;6296378;22;20022;-49
2022/04/21 01:58:29;;;;;;;5.05;3.08;;;;;;;;;;6295299;22;20015;-48
2022/04/21 02:00:54;;;;;;;9.02;4.18;;;;;;;;;;6297714;22;20076;-49
2022/04/21 02:03:20;;;;;;;5.28;3.78;;;;;;;;;;6286408;22;20081;-51
2022/04/21 02:05:45;;;;;;;6.55;3.28;;;;;;;;;;6296102;22;20038;-48
2022/04/21 02:08:10;;;;;;;7.03;3.30;;;;;;;;;;6296355;22;20604;-46
2022/04/21 02:10:35;;;;;;;5.35;3.40;;;;;;;;;;6295071;22;20018;-49
2022/04/21 02:13:01;;;;;;;6.88;3.72;;;;;;;;;;6297489;22;20093;-47
2022/04/21 02:15:27;;;;;;;5.28;2.92;;;;;;;;;;6293487;22;20015;-49
2022/04/21 02:17:52;;;;;;;8.55;3.95;;;;;;;;;;6296610;22;20015;-48
2022/04/21 02:20:18;;;;;;;13.80;3.75;;;;;;;;;;6295646;22;20404;-49
2022/04/21 02:22:46;;;;;;;9.13;3.88;;;;;;;;;;6295450;22;20019;-49
2022/04/21 02:25:13;;;;;;;12.27;3.50;;;;;;;;;;6296704;22;20019;-50
2022/04/21 02:27:39;;;;;;;5.90;3.70;;;;;;;;;;6290346;22;20464;-49
2022/04/21 02:30:05;;;;;;;9.52;3.75;;;;;;;;;;6294220;22;20015;-46
2022/04/21 02:32:30;;;;;;;10.93;3.80;;;;;;;;;;6291987;22;20019;-47
2022/04/21 02:34:56;;;;;;;7.03;3.63;;;;;;;;;;6292211;22;20016;-48
2022/04/21 02:37:21;;;;;;;6.45;4.07;;;;;;;;;;6290921;22;20021;-47
2022/04/21 02:39:47;;;;;;;6.45;3.15;;;;;;;;;;6295936;22;20033;-47
2022/04/21 02:42:13;;;;;;;7.47;4.50;;;;;;;;;;6293397;22;20015;-49
2022/04/21 02:44:38;;;;;;;10.45;4.57;;;;;;;;;;6295835;22;20019;-47
2022/04/21 02:47:04;;;;;;;6.97;4.60;;;;;;;;;;6294637;22;20041;-51
2022/04/21 02:49:29;;;;;;;7.55;4.65;;;;;;;;;;6294118;22;20035;-50
2022/04/21 02:51:55;;;;;;;8.38;4.57;;;;;;;;;;6294898;22;20012;-47
2022/04/21 02:57:20;;;;;;;11.02;4.40;;;;;;;;;;6294915;22;20555;-48
2022/04/21 02:59:45;;;;;;;10.43;4.65;;;;;;;;;;6294945;22;20019;-49
2022/04/21 03:02:10;;;;;;;12.45;4.15;;;;;;;;;;6292100;22;20581;-48
2022/04/21 03:04:35;;;;;;;7.22;4.25;;;;;;;;;;6294639;22;20440;-49
2022/04/21 03:07:01;;;;;;;7.65;4.63;;;;;;;;;;6292873;22;20015;-47
2022/04/21 03:09:26;;;;;;;11.52;4.68;;;;;;;;;;6292684;22;20011;-47
2022/04/21 03:11:51;;;;;;;6.20;4.60;;;;;;;;;;6294227;22;20015;-51
2022/04/21 03:14:19;;;;;;;6.47;4.43;;;;;;;;;;6294681;22;20083;-48
2022/04/21 03:16:44;;;;;;;13.45;4.97;;;;;;;;;;6292514;22;20035;-49
2022/04/21 03:19:09;;;;;;;6.90;4.40;;;;;;;;;;6294192;22;20108;-48
2022/04/21 03:24:21;;;;;;;10.70;5.20;;;;;;;;;;6294536;22;20054;-50
2022/04/21 03:26:47;;;;;;;9.48;4.93;;;;;;;;;;6294857;22;20015;-50
2022/04/21 03:29:12;;;;;;;9.30;5.03;;;;;;;;;;6293761;22;20349;-48
2022/04/21 03:31:37;;;;;;;10.65;5.50;;;;;;;;;;6294803;22;20110;-47
2022/04/21 03:34:05;;;;;;;7.20;4.57;;;;;;;;;;6290711;22;20011;-49
2022/04/21 03:36:31;;;;;;;8.27;4.78;;;;;;;;;;6293074;22;20475;-48
2022/04/21 03:38:56;;;;;;;11.15;5.63;;;;;;;;;;6293274;22;20011;-50
2022/04/21 03:41:21;;;;;;;9.02;5.43;;;;;;;;;;6294176;22;20007;-48
2022/04/21 03:43:47;;;;;;;12.35;5.43;;;;;;;;;;6294662;22;20027;-47
2022/04/21 03:46:12;;;;;;;14.02;6.65;;;;;;;;;;6293933;22;20067;-48
2022/04/21 03:48:38;;;;;;;12.18;5.47;;;;;;;;;;6293414;22;20026;-47
2022/04/21 03:51:03;;;;;;;10.02;5.68;;;;;;;;;;6292652;22;20026;-49
2022/04/21 03:53:28;;;;;;;9.73;5.57;;;;;;;;;;6294231;22;20026;-48
2022/04/21 03:55:54;;;;;;;10.10;5.13;;;;;;;;;;6288835;22;20046;-48
2022/04/21 03:58:19;;;;;;;11.27;5.93;;;;;;;;;;6291674;22;20016;-46
2022/04/21 04:00:44;;;;;;;10.38;6.07;;;;;;;;;;6294380;22;20027;-49
2022/04/21 04:03:09;;;;;;;9.68;5.95;;;;;;;;;;6294484;22;20031;-48
2022/04/21 04:05:35;;;;;;;11.73;6.43;;;;;;;;;;6293425;22;20015;-52
2022/04/21 04:10:53;;;;;;;13.50;6.10;;;;;;;;;;6294012;22;20021;-51
2022/04/21 04:13:22;;;;;;;9.80;6.60;;;;;;;;;;6296963;22;20063;-48
2022/04/21 04:15:49;;;;;;;8.95;5.53;;;;;;;;;;6297398;22;20018;-48
2022/04/21 04:18:18;;;;;;;14.63;6.40;;;;;;;;;;6298111;22;20018;-51
2022/04/21 04:20:44;;;;;;;11.07;6.53;;;;;;;;;;6296209;22;20022;-51
2022/04/21 04:23:09;;;;;;;17.00;6.32;;;;;;;;;;6297682;22;20050;-52
2022/04/21 04:25:35;;;;;;;10.02;6.53;;;;;;;;;;6296707;22;20088;-48
2022/04/21 04:28:00;;;;;;;9.20;6.20;;;;;;;;;;6296786;22;20003;-49
2022/04/21 04:30:26;;;;;;;10.70;5.85;;;;;;;;;;6296276;22;20018;-49
2022/04/21 04:32:51;;;;;;;11.68;6.55;;;;;;;;;;6295067;22;20015;-48
2022/04/21 04:35:16;;;;;;;11.38;6.15;;;;;;;;;;6296473;22;20026;-48
2022/04/21 04:37:42;;;;;;;15.07;6.50;;;;;;;;;;6296315;22;20025;-48
2022/04/21 04:40:08;;;;;;;12.10;6.45;;;;;;;;;;6298357;22;20007;-51
2022/04/21 04:42:33;;;;;;;13.18;6.82;;;;;;;;;;6295446;22;20023;-49
2022/04/21 04:47:43;;;;;;;14.05;7.22;;;;;;;;;;6296538;22;20539;-51
2022/04/21 04:50:08;;;;;;;11.68;6.45;;;;;;;;;;6295630;22;20545;-51
2022/04/21 04:52:34;;;;;;;12.93;7.47;;;;;;;;;;6295576;22;20015;-48
2022/04/21 04:54:59;;;;;;;11.38;6.95;;;;;;;;;;6295428;22;20017;-52
2022/04/21 04:57:24;;;;;;;13.77;7.88;;;;;;;;;;6296909;22;20065;-50
2022/04/21 04:59:50;;;;;;;17.50;6.88;;;;;;;;;;6297440;22;20477;-49
2022/04/21 05:02:17;;;;;;;13.68;7.10;;;;;;;;;;6296415;22;20026;-50
2022/04/21 05:04:42;;;;;;;19.48;7.75;;;;;;;;;;6296726;22;20224;-49
2022/04/21 05:07:08;;;;;;;14.02;8.13;;;;;;;;;;6295157;22;20027;-51
2022/04/21 05:09:33;;;;;;;14.52;7.25;;;;;;;;;;6296641;22;20082;-49
2022/04/21 05:11:58;;;;;;;17.33;8.57;;;;;;;;;;6296210;22;20081;-50
2022/04/21 05:14:24;;;;;;;11.98;6.53;;;;;;;;;;6296774;22;20072;-50
2022/04/21 05:16:50;;;;;;;14.23;7.97;;;;;;;;;;6295303;22;20971;-53
2022/04/21 05:19:16;;;;;;;14.77;7.78;;;;;;;;;;6294775;22;20087;-50
2022/04/21 05:21:42;;;;;;;11.38;7.60;;;;;;;;;;6295460;22;20430;-52
2022/04/21 05:24:08;;;;;;;15.43;8.63;;;;;;;;;;6297598;22;20042;-50
2022/04/21 05:26:34;;;;;;;13.63;7.57;;;;;;;;;;6295672;22;20499;-52
2022/04/21 05:29:00;;;;;;;21.30;7.47;;;;;;;;;;6296896;22;20022;-52
2022/04/21 05:31:26;;;;;;;14.88;8.98;;;;;;;;;;6295408;22;20088;-49
2022/04/21 05:33:52;;;;;;;16.10;8.55;;;;;;;;;;6297245;22;20015;-53
2022/04/21 05:36:17;;;;;;;15.07;8.85;;;;;;;;;;6295092;22;20007;-50
2022/04/21 05:38:43;;;;;;;18.02;9.13;;;;;;;;;;6297606;22;20007;-51
2022/04/21 05:41:08;;;;;;;17.63;9.82;;;;;;;;;;6296164;22;20015;-50
2022/04/21 05:43:40;;;;;;;17.23;8.98;;;;;;;;;;6296627;22;20023;-52
2022/04/21 05:46:06;;;;;;;13.85;8.32;;;;;;;;;;6295536;22;20012;-50
2022/04/21 05:48:32;;;;;;;16.02;9.10;;;;;;;;;;6295687;22;20020;-52
2022/04/21 05:50:57;;;;;;;19.23;8.18;;;;;;;;;;6294645;22;20082;-50
2022/04/21 05:53:23;;;;;;;20.85;9.20;;;;;;;;;;6294248;22;20128;-51
2022/04/21 05:55:49;;;;;;;21.08;9.90;;;;;;;;;;6295830;22;20076;-53
2022/04/21 05:58:14;;;;;;;15.50;9.10;;;;;;;;;;6296753;22;20031;-49
2022/04/21 06:00:40;;;;;;;14.43;8.27;;;;;;;;;;6296246;22;20505;-52
2022/04/21 06:03:05;;;;;;;20.48;9.45;;;;;;;;;;6297530;22;20065;-49
2022/04/21 06:05:31;;;;;;;21.20;9.10;;;;;;;;;;6293682;22;20015;-51
2022/04/21 06:07:56;;;;;;;22.48;8.82;;;;;;;;;;6297322;22;20014;-53
2022/04/21 06:10:21;;;;;;;16.52;8.80;;;;;;;;;;6295000;22;20582;-53
2022/04/21 06:12:48;;;;;;;19.13;9.63;;;;;;;;;;6299434;22;20007;-49
2022/04/21 06:15:14;;;;;;;29.75;8.93;;;;;;;;;;6297612;22;20045;-50
2022/04/21 06:17:39;;;;;;;14.88;8.65;;;;;;;;;;6300678;22;20099;-49
2022/04/21 06:20:05;;;;;;;18.25;8.55;;;;;;;;;;6297318;22;20007;-50
2022/04/21 06:22:30;;;;;;;15.40;8.75;;;;;;;;;;6299954;22;20054;-47
2022/04/21 06:24:55;;;;;;;22.80;9.55;;;;;;;;;;6297634;22;20522;-48
2022/04/21 06:27:20;;;;;;;22.02;10.02;;;;;;;;;;6298164;22;20022;-49
2022/04/21 06:29:46;;;;;;;17.35;9.32;;;;;;;;;;6297989;22;20035;-49
2022/04/21 06:32:11;;;;;;;16.33;8.77;;;;;;;;;;6298080;22;20072;-49
2022/04/21 06:34:36;;;;;;;20.50;10.05;;;;;;;;;;6298755;22;20004;-49
2022/04/21 06:37:02;;;;;;;16.77;8.95;;;;;;;;;;6297183;22;20466;-51
2022/04/21 06:39:27;;;;;;;18.95;10.02;;;;;;;;;;6298133;22;20011;-50
2022/04/21 06:41:53;;;;;;;16.65;9.57;;;;;;;;;;6297672;22;20043;-50
2022/04/21 06:49:46;;;;;;;26.63;10.02;;;;;;;;;;6295491;22;20080;-49
2022/04/21 06:52:11;;;;;;;18.30;9.68;;;;;;;;;;6297712;22;20019;-51
2022/04/21 06:54:36;;;;;;;22.60;10.05;;;;;;;;;;6297048;22;20004;-48
2022/04/21 06:57:02;;;;;;;28.42;11.20;;;;;;;;;;6299559;22;20050;-48
2022/04/21 06:59:27;;;;;;;21.50;10.15;;;;;;;;;;6294265;22;20346;-53
2022/04/21 07:01:52;;;;;;;29.00;10.18;;;;;;;;;;6295992;22;20581;-49
2022/04/21 07:04:18;;;;;;;23.92;11.38;;;;;;;;;;6295170;22;20528;-49
2022/04/21 07:06:43;;;;;;;25.35;10.40;;;;;;;;;;6296830;22;20030;-51
2022/04/21 07:09:09;;;;;;;20.35;10.13;;;;;;;;;;6297058;22;20019;-53
2022/04/21 07:11:34;;;;;;;19.27;9.65;;;;;;;;;;6296150;22;20273;-52
2022/04/21 07:13:59;;;;;;;21.00;10.68;;;;;;;;;;6295939;22;20087;-49
2022/04/21 07:16:25;;;;;;;20.65;11.07;;;;;;;;;;6297017;22;20015;-50
2022/04/21 07:18:50;;;;;;;23.40;11.18;;;;;;;;;;6298921;22;20015;-52
2022/04/21 07:21:16;;;;;;;23.15;10.63;;;;;;;;;;6296878;22;20011;-52
2022/04/21 07:23:42;;;;;;;20.85;10.75;;;;;;;;;;6298841;22;20469;-52
2022/04/21 07:26:07;;;;;;;19.77;10.85;;;;;;;;;;6297504;22;20037;-53
2022/04/21 07:28:33;;;;;;;19.10;10.82;;;;;;;;;;6298663;22;20049;-51
2022/04/21 07:30:58;;;;;;;19.65;9.85;;;;;;;;;;6296508;22;20015;-51
2022/04/21 07:33:23;;;;;;;23.10;10.95;;;;;;;;;;6297902;22;20031;-52
2022/04/21 07:35:49;;;;;;;19.95;12.07;;;;;;;;;;6293552;22;20007;-51
2022/04/21 07:38:14;;;;;;;18.55;10.63;;;;;;;;;;6298295;22;20031;-53
2022/04/21 07:40:39;;;;;;;18.00;10.85;;;;;;;;;;6295997;22;20022;-54
2022/04/21 07:43:08;;;;;;;29.75;12.05;;;;;;;;;;6297162;22;20020;-50
2022/04/21 07:45:40;;;;;;;16.58;9.80;;;;;;;;;;6295182;22;20008;-50
2022/04/21 07:48:05;;;;;;;22.83;10.45;;;;;;;;;;6298559;22;20011;-51
2022/04/21 07:50:30;;;;;;;23.65;10.75;;;;;;;;;;6290921;22;20031;-52
2022/04/21 07:53:14;;;;;;;21.58;12.05;;;;;;;;;;6295171;22;20021;-51
2022/04/21 07:55:42;;;;;;;24.48;12.43;;;;;;;;;;6292449;22;20016;-52
2022/04/21 07:58:08;;;;;;;28.35;12.73;;;;;;;;;;6294456;22;20011;-52
2022/04/21 08:00:36;;;;;;;22.52;11.95;;;;;;;;;;6288592;22;20018;-54
2022/04/21 08:03:02;;;;;;;29.67;13.77;;;;;;;;;;6294348;22;20027;-50
2022/04/21 08:05:27;;;;;;;31.77;13.70;;;;;;;;;;6289403;22;20315;-53
2022/04/21 08:07:53;;;;;;;28.83;12.23;;;;;;;;;;6295310;22;20011;-51
2022/04/21 08:10:19;;;;;;;13.85;7.70;;;;;;;;;;6291165;22;20018;-49
2022/04/21 08:12:45;;;;;;;24.75;12.23;;;;;;;;;;6285868;22;20035;-52
2022/04/21 08:15:12;;;;;;;24.88;13.30;;;;;;;;;;6281339;22;20466;-49
2022/04/21 08:17:37;;;;;;;27.52;12.95;;;;;;;;;;6290249;22;20015;-52
2022/04/21 08:20:07;;;;;;;31.75;14.25;;;;;;;;;;6296274;22;20107;-49
2022/04/21 08:22:32;;;;;;;26.38;14.35;;;;;;;;;;6294630;22;20011;-51
2022/04/21 08:33:09;;;;;;;27.88;13.43;;;;;;;;;;6289276;22;20023;-50
2022/04/21 08:35:35;;;;;;;29.05;13.90;;;;;;;;;;6293031;22;20011;-50
2022/04/21 08:38:00;;;;;;;28.98;14.15;;;;;;;;;;6288757;22;20023;-52
2022/04/21 08:40:27;;;;;;;29.35;14.52;;;;;;;;;;6293529;22;20022;-53
2022/04/21 08:42:54;;;;;;;26.55;14.38;;;;;;;;;;6297525;22;20043;-52
2022/04/21 08:45:20;;;;;;;34.75;15.48;;;;;;;;;;6294717;22;20015;-51
2022/04/21 08:47:48;;;;;;;20.52;13.30;;;;;;;;;;6297772;22;20011;-49
2022/04/21 08:50:16;;;;;;;31.42;13.80;;;;;;;;;;6294245;22;20023;-53
2022/04/21 08:52:42;;;;;;;24.95;14.10;;;;;;;;;;6295766;22;20062;-50
2022/04/21 08:55:08;;;;;;;26.77;13.70;;;;;;;;;;6294759;22;20022;-52
2022/04/21 08:57:37;;;;;;;28.23;14.45;;;;;;;;;;6294084;22;20053;-51
2022/04/21 09:00:06;;;;;;;32.60;13.95;;;;;;;;;;6298312;22;20027;-50
2022/04/21 09:02:42;;;;;;;32.83;14.18;;;;;;;;;;6294176;22;20019;-48
2022/04/21 09:05:08;;;;;;;28.65;13.18;;;;;;;;;;6296183;22;20015;-52
2022/04/21 09:07:42;;;;;;;30.15;14.63;;;;;;;;;;6294122;22;20065;-53
2022/04/21 09:10:11;;;;;;;26.17;14.57;;;;;;;;;;6297546;22;20068;-49
2022/04/21 09:12:39;;;;;;;23.40;13.73;;;;;;;;;;6297137;22;20559;-52
2022/04/21 09:15:09;;;;;;;31.83;14.50;;;;;;;;;;6296257;22;20007;-54
2022/04/21 09:17:34;;;;;;;;;;;;;;;;;;6293253;22;20014;-49
2022/04/21 09:20:00;;;;;;;24.20;13.73;;;;;;;;;;6297026;22;20337;-53
2022/04/21 09:22:25;;;;;;;24.33;13.95;;;;;;;;;;6294481;22;20030;-49
2022/04/21 09:24:52;;;;;;;28.80;14.32;;;;;;;;;;6296713;22;20030;-51
2022/04/21 09:27:17;;;;;;;21.00;13.02;;;;;;;;;;6296745;22;20015;-49
2022/04/21 09:29:43;;;;;;;23.75;12.23;;;;;;;;;;6296199;22;20067;-51
2022/04/21 09:32:08;;;;;;;24.35;13.98;;;;;;;;;;6295612;22;20035;-51
2022/04/21 09:34:34;;;;;;;23.73;12.35;;;;;;;;;;6295381;22;21013;-49
2022/04/21 09:36:59;;;;;;;28.55;14.77;;;;;;;;;;6296725;22;20018;-51
2022/04/21 09:39:27;;;;;;;28.83;12.85;;;;;;;;;;6295355;22;20063;-51
2022/04/21 09:41:56;;;;;;;25.63;12.48;;;;;;;;;;6297734;22;20011;-48
2022/04/21 09:47:30;;;;;;;24.02;13.13;;;;;;;;;;6296859;22;20018;-48
2022/04/21 09:49:57;;;;;;;21.35;11.85;;;;;;;;;;6299244;22;20106;-50
2022/04/21 09:52:26;;;;;;;24.38;12.40;;;;;;;;;;6297736;22;20464;-48
2022/04/21 09:54:51;;;;;;;30.05;13.65;;;;;;;;;;6299365;22;20094;-48
2022/04/21 09:57:27;;;;;;;32.00;15.57;;;;;;;;;;6296538;22;20068;-49
2022/04/21 09:59:53;;;;;;;22.50;12.63;;;;;;;;;;6298068;22;20007;-50
2022/04/21 10:02:18;;;;;;;26.20;13.57;;;;;;;;;;6297976;22;20025;-51
2022/04/21 10:04:45;;;;;;;24.70;13.02;;;;;;;;;;6296620;22;20023;-50
2022/04/21 10:07:10;;;;;;;24.27;12.40;;;;;;;;;;6298770;22;20004;-50
2022/04/21 10:09:35;;;;;;;22.38;11.60;;;;;;;;;;6297765;22;20019;-50
2022/04/21 10:12:01;;;;;;;21.95;11.40;;;;;;;;;;6299303;22;20031;-49
2022/04/21 10:14:27;;;;;;;20.00;11.18;;;;;;;;;;6291235;22;20016;-49
2022/04/21 10:16:53;;;;;;;26.20;12.10;;;;;;;;;;6297240;22;20023;-50
2022/04/21 10:19:20;;;;;;;22.55;11.82;;;;;;;;;;6296558;22;20069;-51
2022/04/21 10:21:56;;;;;;;25.45;12.55;;;;;;;;;;6298355;22;20123;-50
2022/04/21 10:24:22;;;;;;;24.48;12.00;;;;;;;;;;6296505;22;20027;-50
2022/04/21 10:26:47;;;;;;;25.98;12.32;;;;;;;;;;6297927;22;20022;-53
2022/04/21 10:29:13;;;;;;;20.23;11.13;;;;;;;;;;6297057;22;20065;-53
2022/04/21 10:31:45;;;;;;;25.95;12.52;;;;;;;;;;6297887;22;20049;-51
2022/04/21 10:34:10;;;;;;;19.73;10.68;;;;;;;;;;6297174;22;20022;-52
2022/04/21 10:36:42;;;;;;;22.40;12.43;;;;;;;;;;6297744;22;20011;-53
2022/04/21 10:39:08;;;;;;;15.85;10.43;;;;;;;;;;6294720;22;20068;-53
2022/04/21 10:41:37;;;;;;;18.85;10.88;;;;;;;;;;6298201;22;20507;-50
2022/04/21 10:44:03;;;;;;;21.40;11.80;;;;;;;;;;6294172;22;20347;-49
2022/04/21 10:46:31;;;;;;;20.15;11.13;;;;;;;;;;6298719;22;20015;-49
2022/04/21 10:48:58;;;;;;;19.00;11.20;;;;;;;;;;6295395;22;20023;-49
2022/04/21 10:57:16;;;;;;;21.83;9.93;;;;;;;;;;6297500;22;20103;-51
2022/04/21 10:59:49;;;;;;;17.55;9.57;;;;;;;;;;6298957;22;20019;-49
2022/04/21 11:02:14;;;;;;;16.15;9.55;;;;;;;;;;6296685;22;20015;-51
2022/04/21 11:04:40;;;;;;;20.17;9.55;;;;;;;;;;6287243;22;20669;-51
2022/04/21 11:07:12;;;;;;;13.23;7.72;;;;;;;;;;6297677;22;20011;-51
2022/04/21 11:09:42;;;;;;;14.07;8.35;;;;;;;;;;6293856;22;20412;-49
2022/04/21 11:12:09;;;;;;;14.57;8.50;;;;;;;;;;6298446;22;20016;-48
2022/04/21 11:14:36;;;;;;;16.20;8.73;;;;;;;;;;6295686;22;20089;-48
2022/04/21 11:17:01;;;;;;;15.77;9.35;;;;;;;;;;6293955;22;20018;-49
2022/04/21 11:19:33;;;;;;;17.27;9.32;;;;;;;;;;6295531;22;20007;-50
2022/04/21 11:21:58;;;;;;;17.40;8.45;;;;;;;;;;6294373;22;20007;-50
2022/04/21 11:24:24;;;;;;;21.45;8.73;;;;;;;;;;6294327;22;20019;-48
2022/04/21 11:26:56;;;;;;;17.00;10.48;;;;;;;;;;6297253;22;20011;-48
2022/04/21 11:29:21;;;;;;;20.00;10.82;;;;;;;;;;6293415;22;20042;-53
2022/04/21 11:31:47;;;;;;;16.95;10.48;;;;;;;;;;6297863;22;20015;-50
2022/04/21 11:34:20;;;;;;;18.88;10.32;;;;;;;;;;6294107;22;20034;-52
2022/04/21 11:36:45;;;;;;;21.85;11.25;;;;;;;;;;6299132;22;20015;-53
2022/04/21 11:39:12;;;;;;;22.75;10.18;;;;;;;;;;6297075;22;20035;-47
2022/04/21 11:41:42;;;;;;;20.23;10.45;;;;;;;;;;6299020;22;20015;-50
2022/04/21 11:44:07;;;;;;;23.50;11.43;;;;;;;;;;6297294;22;20022;-50
2022/04/21 11:46:36;;;;;;;25.33;9.63;;;;;;;;;;6298323;22;20321;-49
2022/04/21 11:49:02;;;;;;;21.58;11.73;;;;;;;;;;6296765;22;20106;-51
2022/04/21 11:51:28;;;;;;;18.95;9.57;;;;;;;;;;6298586;22;20012;-49
2022/04/21 11:53:53;;;;;;;15.73;10.00;;;;;;;;;;6297244;22;20094;-48
2022/04/21 11:56:18;;;;;;;22.55;12.77;;;;;;;;;;6297964;22;20224;-49
2022/04/21 11:58:44;;;;;;;21.42;9.68;;;;;;;;;;6283895;22;20012;-50
2022/04/21 12:06:45;;;;;;;18.17;8.90;;;;;;;;;;6298360;22;20042;-52
2022/04/21 12:09:15;;;;;;;19.80;9.90;;;;;;;;;;6293550;22;20011;-47
2022/04/21 12:11:41;;;;;;;14.00;7.80;;;;;;;;;;6296762;22;20007;-50
2022/04/21 12:14:06;;;;;;;11.10;8.13;;;;;;;;;;6295800;22;20037;-52
2022/04/21 12:16:35;;;;;;;15.75;7.95;;;;;;;;;;6298570;22;20003;-49
2022/04/21 12:19:09;;;;;;;18.58;8.07;;;;;;;;;;6297191;22;20431;-50
2022/04/21 12:21:35;;;;;;;11.18;7.45;;;;;;;;;;6294316;22;20490;-51
2022/04/21 12:24:11;;;;;;;9.73;7.43;;;;;;;;;;6295553;22;20745;-52
2022/04/21 12:26:36;;;;;;;11.80;6.47;;;;;;;;;;6298767;22;20057;-49
2022/04/21 12:29:01;;;;;;;10.90;6.15;;;;;;;;;;6295989;22;20019;-48
2022/04/21 12:31:27;;;;;;;12.82;7.18;;;;;;;;;;6297068;22;20011;-50
2022/04/21 12:33:52;;;;;;;6.47;4.63;;;;;;;;;;6295086;22;20615;-49
2022/04/21 12:36:27;;;;;;;11.35;5.63;;;;;;;;;;6292861;22;20021;-51
2022/04/21 12:38:56;;;;;;;12.32;5.82;;;;;;;;;;6295309;22;20034;-49
2022/04/21 12:41:22;;;;;;;9.30;6.00;;;;;;;;;;6296050;22;20474;-51
2022/04/21 12:43:48;;;;;;;9.45;5.88;;;;;;;;;;6296366;22;20028;-51
2022/04/21 12:46:14;;;;;;;11.65;6.00;;;;;;;;;;6296654;22;20019;-53
2022/04/21 12:48:46;;;;;;;6.75;4.50;;;;;;;;;;6296672;22;20050;-49
2022/04/21 12:51:16;;;;;;;8.30;4.68;;;;;;;;;;6297329;22;20027;-49
2022/04/21 12:53:42;;;;;;;10.52;4.85;;;;;;;;;;6294946;22;20022;-51
2022/04/21 12:56:11;;;;;;;6.00;4.78;;;;;;;;;;6297787;22;20011;-52
2022/04/21 12:58:36;;;;;;;7.75;4.70;;;;;;;;;;6294513;22;20623;-53
2022/04/21 13:01:05;;;;;;;7.80;6.03;;;;;;;;;;6297771;22;20660;-52
2022/04/21 13:03:31;;;;;;;6.57;4.23;;;;;;;;;;6294042;22;20014;-50
2022/04/21 13:05:58;;;;;;;8.07;3.97;;;;;;;;;;6296396;22;20232;-49
2022/04/21 13:08:24;;;;;;;10.85;4.80;;;;;;;;;;6294616;22;20082;-52
2022/04/21 13:10:50;;;;;;;7.82;4.70;;;;;;;;;;6296648;22;20016;-49
2022/04/21 13:13:15;;;;;;;8.02;4.75;;;;;;;;;;6293748;22;20026;-52
2022/04/21 13:15:41;;;;;;;8.85;4.30;;;;;;;;;;6298170;22;20031;-52
2022/04/21 13:18:06;;;;;;;7.45;4.80;;;;;;;;;;6294389;22;20018;-50
2022/04/21 13:23:16;;;;;;;6.93;5.00;;;;;;;;;;6296152;22;20086;-50
2022/04/21 13:25:42;;;;;;;7.05;4.55;;;;;;;;;;6298012;22;20015;-51
2022/04/21 13:28:08;;;;;;;6.38;4.53;;;;;;;;;;6296072;22;20045;-49
2022/04/21 13:30:34;;;;;;;9.93;5.18;;;;;;;;;;6297177;22;20007;-52
2022/04/21 13:35:43;;;;;;;11.50;5.47;;;;;;;;;;6294433;22;20022;-52
2022/04/21 13:38:08;;;;;;;10.27;5.15;;;;;;;;;;6295281;22;20015;-51
2022/04/21 13:40:34;;;;;;;8.93;4.72;;;;;;;;;;6292734;22;20034;-53
2022/04/21 13:42:59;;;;;;;7.15;3.95;;;;;;;;;;6292254;22;20019;-51
2022/04/21 13:45:25;;;;;;;9.90;5.60;;;;;;;;;;6296604;22;20015;-49
2022/04/21 13:47:50;;;;;;;8.63;4.95;;;;;;;;;;6294145;22;20011;-50
2022/04/21 13:50:15;;;;;;;8.15;4.63;;;;;;;;;;6294062;22;20031;-54
2022/04/21 13:52:42;;;;;;;7.28;4.85;;;;;;;;;;6291141;22;20045;-52
2022/04/21 13:55:08;;;;;;;10.70;5.32;;;;;;;;;;6294824;22;20014;-51
2022/04/21 13:57:33;;;;;;;12.50;5.90;;;;;;;;;;6294105;22;20012;-49
2022/04/21 13:59:58;;;;;;;7.72;5.15;;;;;;;;;;6294758;22;20011;-52
2022/04/21 14:02:24;;;;;;;12.43;6.68;;;;;;;;;;6296264;22;20657;-52
2022/04/21 14:04:49;;;;;;;9.88;5.55;;;;;;;;;;6296480;22;20077;-53
2022/04/21 14:07:14;;;;;;;13.32;5.90;;;;;;;;;;6294224;22;20064;-49
2022/04/21 14:09:39;;;;;;;10.10;6.30;;;;;;;;;;6296272;22;20019;-50
2022/04/21 14:12:05;;;;;;;12.80;6.25;;;;;;;;;;6294866;22;20015;-50
2022/04/21 14:14:31;;;;;;;10.25;6.68;;;;;;;;;;6292980;22;20015;-51
2022/04/21 14:16:57;;;;;;;10.45;6.85;;;;;;;;;;6296784;22;20016;-50
2022/04/21 14:19:23;;;;;;;8.43;6.25;;;;;;;;;;6295888;22;20038;-50
2022/04/21 14:21:48;;;;;;;8.15;5.78;;;;;;;;;;6299777;22;20015;-49
2022/04/21 14:24:13;;;;;;;10.45;6.88;;;;;;;;;;6296283;22;20200;-50
2022/04/21 14:26:39;;;;;;;9.65;6.43;;;;;;;;;;6297759;22;20042;-52
2022/04/21 14:29:05;;;;;;;12.70;6.43;;;;;;;;;;6296925;22;20019;-53
2022/04/21 14:31:30;;;;;;;10.32;5.85;;;;;;;;;;6297502;22;22318;-48
2022/04/21 14:33:55;;;;;;;10.65;5.35;;;;;;;;;;6297527;22;20125;-51
2022/04/21 14:36:21;;;;;;;8.32;4.80;;;;;;;;;;6299457;22;20067;-52
2022/04/21 14:44:13;;;;;;;6.55;4.53;;;;;;;;;;6298139;22;20057;-51
2022/04/21 14:46:43;;;;;;;9.18;5.55;;;;;;;;;;6296091;22;20011;-49
2022/04/21 14:49:09;;;;;;;10.32;5.47;;;;;;;;;;6299341;22;20067;-51
2022/04/21 14:51:34;;;;;;;13.73;6.00;;;;;;;;;;6298263;22;20026;-51
2022/04/21 14:54:00;;;;;;;7.82;5.55;;;;;;;;;;6299480;22;20012;-50
2022/04/21 14:56:26;;;;;;;11.43;5.82;;;;;;;;;;6297667;22;20039;-52
2022/04/21 14:58:51;;;;;;;9.15;5.57;;;;;;;;;;6296280;22;20015;-49
2022/04/21 15:01:19;;;;;;;8.52;6.43;;;;;;;;;;6295364;22;20015;-50
2022/04/21 15:03:45;;;;;;;10.17;6.40;;;;;;;;;;6297739;22;20019;-54
2022/04/21 15:06:10;;;;;;;9.55;6.03;;;;;;;;;;6293970;22;20015;-50
2022/04/21 15:08:36;;;;;;;10.10;6.05;;;;;;;;;;6296865;22;20015;-52
2022/04/21 15:11:03;;;;;;;11.38;5.07;;;;;;;;;;6293891;22;20019;-48
2022/04/21 15:13:28;;;;;;;9.48;6.47;;;;;;;;;;6288426;22;20059;-52
2022/04/21 15:15:54;;;;;;;14.05;7.50;;;;;;;;;;6288890;22;20011;-53
2022/04/21 15:18:19;;;;;;;9.23;5.78;;;;;;;;;;6290455;22;20020;-54
2022/04/21 15:20:46;;;;;;;10.48;5.45;;;;;;;;;;6291461;22;20857;-50
2022/04/21 15:23:12;;;;;;;11.13;6.78;;;;;;;;;;6296724;22;20026;-52